PWSweather.com
Personal Weather Stations
Station Observations
UWIDEPER1
Brown County, Depere, WI 54115

Brown CountyDepere, WI 54115

Lat: 44.44, Lon: -88.05

Elevation: 610

Station Type: Acurite 5in1

www.depereweather.com

High Low Average
Temperature 32.9°F0.5°C 14.9°F-9.5°C 23.3°F-4.8°C
Dew Point 16.5°F-8.6°C 6.6°F-14.1°C 12.2°F-11.0°C
Winds 10.4 mph 16.7 kmh Calm Calm 5.0 mph WSW8.0 kmh WSW
Wind Gusts 13.8 mph22.2 kmh -- 6.0 mph9.7 kmh
Humidity 85% 48% 63%
Pressure 30.28 in1025.4 mb 30.10 in1019.3 mb -
Precipitation 0.00 in0.0 mm - -
Hour Temp Dew Point Humidity Winds Wind Gusts Pressure Precip Precip Rate Daily Precip Total
12:00 AM 24.1°F-4.4°C 15.4°F-9.2°C 69% 4.6 mph SSW7.4 kmh SSW 3.5 mph5.6 kmh 30.17 in1021.7 mb - 0.00 in0.0 mm 0.00 in0.0 mm
12:10 AM 23.7°F-4.6°C 15.0°F-9.4°C 69% 3.5 mph WNW5.6 kmh WNW 3.5 mph5.6 kmh 30.17 in1021.7 mb - 0.00 in0.0 mm 0.00 in0.0 mm
12:15 AM 23.5°F-4.7°C 14.8°F-9.6°C 69% 4.6 mph WSW7.4 kmh WSW 6.9 mph11.1 kmh 30.17 in1021.7 mb - 0.00 in0.0 mm 0.00 in0.0 mm
12:20 AM 23.4°F-4.8°C 14.7°F-9.6°C 69% 4.6 mph SW7.4 kmh SW 3.5 mph5.6 kmh 30.18 in1022.0 mb - 0.00 in0.0 mm 0.00 in0.0 mm
12:25 AM 23.4°F-4.8°C 14.7°F-9.6°C 69% 4.6 mph SW7.4 kmh SW 6.9 mph11.1 kmh 30.18 in1022.0 mb - 0.00 in0.0 mm 0.00 in0.0 mm
12:30 AM 23.2°F-4.9°C 14.5°F-9.7°C 69% 4.6 mph W7.4 kmh W 5.8 mph9.3 kmh 30.17 in1021.7 mb - 0.00 in0.0 mm 0.00 in0.0 mm
12:35 AM 23.2°F-4.9°C 14.5°F-9.7°C 69% 6.9 mph W11.1 kmh W 9.2 mph14.8 kmh 30.18 in1022.0 mb - 0.00 in0.0 mm 0.00 in0.0 mm
12:40 AM 23.2°F-4.9°C 14.2°F-9.9°C 68% 5.8 mph W9.3 kmh W 5.8 mph9.3 kmh 30.18 in1022.0 mb - 0.00 in0.0 mm 0.00 in0.0 mm
12:45 AM 22.8°F-5.1°C 13.8°F-10.1°C 68% 5.8 mph W9.3 kmh W 6.9 mph11.1 kmh 30.18 in1022.0 mb - 0.00 in0.0 mm 0.00 in0.0 mm
12:50 AM 22.6°F-5.2°C 13.7°F-10.2°C 68% 5.8 mph WNW9.3 kmh WNW 9.2 mph14.8 kmh 30.19 in1022.4 mb - 0.00 in0.0 mm 0.00 in0.0 mm
12:55 AM 22.5°F-5.3°C 12.8°F-10.7°C 66% 5.8 mph W9.3 kmh W 3.5 mph5.6 kmh 30.19 in1022.4 mb - 0.00 in0.0 mm 0.00 in0.0 mm
01:00 AM 22.5°F-5.3°C 13.5°F-10.3°C 68% 4.6 mph W7.4 kmh W 5.8 mph9.3 kmh 30.20 in1022.7 mb - 0.00 in0.0 mm 0.00 in0.0 mm
01:10 AM 22.3°F-5.4°C 13.3°F-10.4°C 68% 5.8 mph W9.3 kmh W 6.9 mph11.1 kmh 30.19 in1022.4 mb - 0.00 in0.0 mm 0.00 in0.0 mm
01:15 AM 22.3°F-5.4°C 12.6°F-10.8°C 66% 5.8 mph W9.3 kmh W 4.6 mph7.4 kmh 30.19 in1022.4 mb - 0.00 in0.0 mm 0.00 in0.0 mm
01:20 AM 22.1°F-5.5°C 12.5°F-10.8°C 66% 4.6 mph WNW7.4 kmh WNW 6.9 mph11.1 kmh 30.20 in1022.7 mb - 0.00 in0.0 mm 0.00 in0.0 mm
01:25 AM 21.9°F-5.6°C 12.3°F-10.9°C 66% 4.6 mph W7.4 kmh W 9.2 mph14.8 kmh 30.20 in1022.7 mb - 0.00 in0.0 mm 0.00 in0.0 mm
01:30 AM 21.9°F-5.6°C 12.3°F-10.9°C 66% 5.8 mph WSW9.3 kmh WSW 8.1 mph13.0 kmh 30.20 in1022.7 mb - 0.00 in0.0 mm 0.00 in0.0 mm
01:35 AM 21.9°F-5.6°C 11.9°F-11.2°C 65% 5.8 mph W9.3 kmh W 3.5 mph5.6 kmh 30.20 in1022.7 mb - 0.00 in0.0 mm 0.00 in0.0 mm
01:40 AM 21.7°F-5.7°C 11.8°F-11.2°C 65% 4.6 mph W7.4 kmh W 6.9 mph11.1 kmh 30.20 in1022.7 mb - 0.00 in0.0 mm 0.00 in0.0 mm
01:45 AM 21.6°F-5.8°C 11.6°F-11.3°C 65% 4.6 mph WSW7.4 kmh WSW 3.5 mph5.6 kmh 30.20 in1022.7 mb - 0.00 in0.0 mm 0.00 in0.0 mm
01:50 AM 21.4°F-5.9°C 11.8°F-11.2°C 66% 4.6 mph W7.4 kmh W 5.8 mph9.3 kmh 30.20 in1022.7 mb - 0.00 in0.0 mm 0.00 in0.0 mm
01:55 AM 21.4°F-5.9°C 11.8°F-11.2°C 66% 4.6 mph W7.4 kmh W 5.8 mph9.3 kmh 30.20 in1022.7 mb - 0.00 in0.0 mm 0.00 in0.0 mm
02:00 AM 21.0°F-6.1°C 11.4°F-11.4°C 66% 3.5 mph WNW5.6 kmh WNW 5.8 mph9.3 kmh 30.20 in1022.7 mb - 0.00 in0.0 mm 0.00 in0.0 mm
02:10 AM 20.7°F-6.3°C 11.1°F-11.6°C 66% 3.5 mph W5.6 kmh W 5.8 mph9.3 kmh 30.19 in1022.4 mb - 0.00 in0.0 mm 0.00 in0.0 mm
02:15 AM 20.7°F-6.3°C 10.7°F-11.8°C 65% 4.6 mph WSW7.4 kmh WSW 3.5 mph5.6 kmh 30.20 in1022.7 mb - 0.00 in0.0 mm 0.00 in0.0 mm
02:20 AM 20.7°F-6.3°C 10.7°F-11.8°C 65% 3.5 mph W5.6 kmh W 4.6 mph7.4 kmh 30.20 in1022.7 mb - 0.00 in0.0 mm 0.00 in0.0 mm
02:25 AM 20.7°F-6.3°C 10.7°F-11.8°C 65% 4.6 mph W7.4 kmh W 4.6 mph7.4 kmh 30.20 in1022.7 mb - 0.00 in0.0 mm 0.00 in0.0 mm
02:30 AM 20.7°F-6.3°C 10.7°F-11.8°C 65% 5.8 mph WSW9.3 kmh WSW 10.4 mph16.7 kmh 30.21 in1023.0 mb - 0.00 in0.0 mm 0.00 in0.0 mm
02:35 AM 20.7°F-6.3°C 9.7°F-12.4°C 62% 8.1 mph W13.0 kmh W 11.5 mph18.5 kmh 30.20 in1022.7 mb - 0.00 in0.0 mm 0.00 in0.0 mm
02:40 AM 20.7°F-6.3°C 10.0°F-12.2°C 63% 5.8 mph W9.3 kmh W 5.8 mph9.3 kmh 30.20 in1022.7 mb - 0.00 in0.0 mm 0.00 in0.0 mm
02:45 AM 20.7°F-6.3°C 9.3°F-12.6°C 61% 5.8 mph W9.3 kmh W 6.9 mph11.1 kmh 30.21 in1023.0 mb - 0.00 in0.0 mm 0.00 in0.0 mm
02:50 AM 20.7°F-6.3°C 10.0°F-12.2°C 63% 5.8 mph W9.3 kmh W 4.6 mph7.4 kmh 30.21 in1023.0 mb - 0.00 in0.0 mm 0.00 in0.0 mm
02:55 AM 20.1°F-6.6°C 9.5°F-12.5°C 63% 3.5 mph W5.6 kmh W 8.1 mph13.0 kmh 30.21 in1023.0 mb - 0.00 in0.0 mm 0.00 in0.0 mm
03:00 AM 20.0°F-6.7°C 10.1°F-12.2°C 65% 3.5 mph WSW5.6 kmh WSW 3.5 mph5.6 kmh 30.21 in1023.0 mb - 0.00 in0.0 mm 0.00 in0.0 mm
03:10 AM 19.8°F-6.8°C 9.9°F-12.3°C 65% 4.6 mph W7.4 kmh W 8.1 mph13.0 kmh 30.21 in1023.0 mb - 0.00 in0.0 mm 0.00 in0.0 mm
03:15 AM 19.8°F-6.8°C 9.9°F-12.3°C 65% 4.6 mph WSW7.4 kmh WSW 3.5 mph5.6 kmh 30.21 in1023.0 mb - 0.00 in0.0 mm 0.00 in0.0 mm
03:20 AM 19.8°F-6.8°C 10.2°F-12.1°C 66% 4.6 mph WSW7.4 kmh WSW 8.1 mph13.0 kmh 30.22 in1023.4 mb - 0.00 in0.0 mm 0.00 in0.0 mm
03:25 AM 19.8°F-6.8°C 10.2°F-12.1°C 66% 5.8 mph W9.3 kmh W 9.2 mph14.8 kmh 30.21 in1023.0 mb - 0.00 in0.0 mm 0.00 in0.0 mm
03:30 AM 19.8°F-6.8°C 10.2°F-12.1°C 66% 6.9 mph W11.1 kmh W 10.4 mph16.7 kmh 30.22 in1023.4 mb - 0.00 in0.0 mm 0.00 in0.0 mm
03:35 AM 19.8°F-6.8°C 10.2°F-12.1°C 66% 5.8 mph W9.3 kmh W 9.2 mph14.8 kmh 30.22 in1023.4 mb - 0.00 in0.0 mm 0.00 in0.0 mm
03:40 AM 19.8°F-6.8°C 10.2°F-12.1°C 66% 6.9 mph WSW11.1 kmh WSW 10.4 mph16.7 kmh 30.22 in1023.4 mb - 0.00 in0.0 mm 0.00 in0.0 mm
03:45 AM 19.6°F-6.9°C 10.1°F-12.2°C 66% 6.9 mph WSW11.1 kmh WSW 4.6 mph7.4 kmh 30.22 in1023.4 mb - 0.00 in0.0 mm 0.00 in0.0 mm
03:50 AM 19.6°F-6.9°C 10.1°F-12.2°C 66% 6.9 mph WSW11.1 kmh WSW 4.6 mph7.4 kmh 30.23 in1023.7 mb - 0.00 in0.0 mm 0.00 in0.0 mm
03:55 AM 19.2°F-7.1°C 9.7°F-12.4°C 66% 5.8 mph WNW9.3 kmh WNW 4.6 mph7.4 kmh 30.23 in1023.7 mb - 0.00 in0.0 mm 0.00 in0.0 mm
04:00 AM 19.1°F-7.2°C 9.6°F-12.4°C 66% 4.6 mph SW7.4 kmh SW 4.6 mph7.4 kmh 30.23 in1023.7 mb - 0.00 in0.0 mm 0.00 in0.0 mm
04:10 AM 18.8°F-7.3°C 10.0°F-12.2°C 68% 4.6 mph WSW7.4 kmh WSW 3.5 mph5.6 kmh 30.23 in1023.7 mb - 0.00 in0.0 mm 0.00 in0.0 mm
04:15 AM 18.7°F-7.4°C 9.9°F-12.3°C 68% 5.8 mph W9.3 kmh W 9.2 mph14.8 kmh 30.23 in1023.7 mb - 0.00 in0.0 mm 0.00 in0.0 mm
04:20 AM 18.5°F-7.5°C 9.7°F-12.4°C 68% 5.8 mph W9.3 kmh W 8.1 mph13.0 kmh 30.23 in1023.7 mb - 0.00 in0.0 mm 0.00 in0.0 mm
04:25 AM 18.5°F-7.5°C 9.7°F-12.4°C 68% 5.8 mph W9.3 kmh W 4.6 mph7.4 kmh 30.24 in1024.0 mb - 0.00 in0.0 mm 0.00 in0.0 mm
04:30 AM 18.4°F-7.6°C 9.5°F-12.5°C 68% 5.8 mph W9.3 kmh W 6.9 mph11.1 kmh 30.23 in1023.7 mb - 0.00 in0.0 mm 0.00 in0.0 mm
04:35 AM 18.1°F-7.7°C 9.7°F-12.4°C 69% 4.6 mph WSW7.4 kmh WSW 3.5 mph5.6 kmh 30.24 in1024.0 mb - 0.00 in0.0 mm 0.00 in0.0 mm
04:40 AM 18.1°F-7.7°C 10.0°F-12.2°C 70% 4.6 mph WSW7.4 kmh WSW 4.6 mph7.4 kmh 30.23 in1023.7 mb - 0.00 in0.0 mm 0.00 in0.0 mm
04:45 AM 18.0°F-7.8°C 9.8°F-12.3°C 70% 5.8 mph WSW9.3 kmh WSW 4.6 mph7.4 kmh 30.24 in1024.0 mb - 0.00 in0.0 mm 0.00 in0.0 mm
04:50 AM 17.8°F-7.9°C 9.3°F-12.6°C 69% 5.8 mph W9.3 kmh W 11.5 mph18.5 kmh 30.24 in1024.0 mb - 0.00 in0.0 mm 0.00 in0.0 mm
04:55 AM 17.8°F-7.9°C 9.0°F-12.8°C 68% 8.1 mph W13.0 kmh W 9.2 mph14.8 kmh 30.24 in1024.0 mb - 0.00 in0.0 mm 0.00 in0.0 mm
05:00 AM 17.8°F-7.9°C 9.0°F-12.8°C 68% 6.9 mph SW11.1 kmh SW 10.4 mph16.7 kmh 30.24 in1024.0 mb - 0.00 in0.0 mm 0.00 in0.0 mm
05:10 AM 17.4°F-8.1°C 9.3°F-12.6°C 70% 4.6 mph W7.4 kmh W 5.8 mph9.3 kmh 30.24 in1024.0 mb - 0.00 in0.0 mm 0.00 in0.0 mm
05:15 AM 17.2°F-8.2°C 9.1°F-12.7°C 70% 4.6 mph WSW7.4 kmh WSW 6.9 mph11.1 kmh 30.24 in1024.0 mb - 0.00 in0.0 mm 0.00 in0.0 mm
05:20 AM 17.1°F-8.3°C 9.0°F-12.8°C 70% 6.9 mph WSW11.1 kmh WSW 6.9 mph11.1 kmh 30.24 in1024.0 mb - 0.00 in0.0 mm 0.00 in0.0 mm
05:25 AM 16.9°F-8.4°C 8.8°F-12.9°C 70% 5.8 mph W9.3 kmh W 8.1 mph13.0 kmh 30.24 in1024.0 mb - 0.00 in0.0 mm 0.00 in0.0 mm
05:30 AM 16.9°F-8.4°C 8.8°F-12.9°C 70% 5.8 mph W9.3 kmh W 6.9 mph11.1 kmh 30.24 in1024.0 mb - 0.00 in0.0 mm 0.00 in0.0 mm
05:35 AM 16.7°F-8.5°C 8.6°F-13.0°C 70% 5.8 mph SW9.3 kmh SW 8.1 mph13.0 kmh 30.24 in1024.0 mb - 0.00 in0.0 mm 0.00 in0.0 mm
05:40 AM 16.3°F-8.7°C 8.3°F-13.2°C 70% 5.8 mph WSW9.3 kmh WSW 8.1 mph13.0 kmh 30.24 in1024.0 mb - 0.00 in0.0 mm 0.00 in0.0 mm
05:45 AM 16.2°F-8.8°C 8.1°F-13.3°C 70% 4.6 mph W7.4 kmh W 3.5 mph5.6 kmh 30.24 in1024.0 mb - 0.00 in0.0 mm 0.00 in0.0 mm
05:50 AM 16.2°F-8.8°C 8.1°F-13.3°C 70% 5.8 mph W9.3 kmh W 8.1 mph13.0 kmh 30.24 in1024.0 mb - 0.00 in0.0 mm 0.00 in0.0 mm
05:55 AM 16.2°F-8.8°C 8.1°F-13.3°C 70% 5.8 mph SW9.3 kmh SW 8.1 mph13.0 kmh 30.25 in1024.4 mb - 0.00 in0.0 mm 0.00 in0.0 mm
06:00 AM 16.2°F-8.8°C 8.1°F-13.3°C 70% 6.9 mph W11.1 kmh W 9.2 mph14.8 kmh 30.25 in1024.4 mb - 0.00 in0.0 mm 0.00 in0.0 mm
06:10 AM 15.8°F-9.0°C 7.7°F-13.5°C 70% 4.6 mph W7.4 kmh W 4.6 mph7.4 kmh 30.25 in1024.4 mb - 0.00 in0.0 mm 0.00 in0.0 mm
06:15 AM 15.6°F-9.1°C 7.6°F-13.6°C 70% 4.6 mph SW7.4 kmh SW 5.8 mph9.3 kmh 30.26 in1024.7 mb - 0.00 in0.0 mm 0.00 in0.0 mm
06:20 AM 15.5°F-9.2°C 7.5°F-13.6°C 70% 5.8 mph WSW9.3 kmh WSW 6.9 mph11.1 kmh 30.25 in1024.4 mb - 0.00 in0.0 mm 0.00 in0.0 mm
06:25 AM 15.3°F-9.3°C 7.2°F-13.8°C 70% 5.8 mph WSW9.3 kmh WSW 6.9 mph11.1 kmh 30.26 in1024.7 mb - 0.00 in0.0 mm 0.00 in0.0 mm
06:30 AM 15.3°F-9.3°C 7.2°F-13.8°C 70% 5.8 mph SW9.3 kmh SW 4.6 mph7.4 kmh 30.25 in1024.4 mb - 0.00 in0.0 mm 0.00 in0.0 mm
06:35 AM 15.3°F-9.3°C 7.2°F-13.8°C 70% 5.8 mph SW9.3 kmh SW 5.8 mph9.3 kmh 30.25 in1024.4 mb - 0.00 in0.0 mm 0.00 in0.0 mm
06:40 AM 15.1°F-9.4°C 7.1°F-13.8°C 70% 4.6 mph SW7.4 kmh SW 5.8 mph9.3 kmh 30.25 in1024.4 mb - 0.00 in0.0 mm 0.00 in0.0 mm
06:45 AM 15.1°F-9.4°C 7.4°F-13.7°C 71% 5.8 mph WSW9.3 kmh WSW 6.9 mph11.1 kmh 30.25 in1024.4 mb - 0.00 in0.0 mm 0.00 in0.0 mm
06:50 AM 14.9°F-9.5°C 7.2°F-13.8°C 71% 4.6 mph SW7.4 kmh SW 8.1 mph13.0 kmh 30.26 in1024.7 mb - 0.00 in0.0 mm 0.00 in0.0 mm
06:55 AM 14.9°F-9.5°C 7.2°F-13.8°C 71% 5.8 mph WSW9.3 kmh WSW 8.1 mph13.0 kmh 30.26 in1024.7 mb - 0.00 in0.0 mm 0.00 in0.0 mm
07:00 AM 14.9°F-9.5°C 7.2°F-13.8°C 71% 5.8 mph WNW9.3 kmh WNW 5.8 mph9.3 kmh 30.26 in1024.7 mb - 0.00 in0.0 mm 0.00 in0.0 mm
07:10 AM 15.3°F-9.3°C 7.2°F-13.8°C 70% 6.9 mph W11.1 kmh W 8.1 mph13.0 kmh 30.26 in1024.7 mb - 0.00 in0.0 mm 0.00 in0.0 mm
07:15 AM 15.3°F-9.3°C 6.9°F-13.9°C 69% 6.9 mph SW11.1 kmh SW 8.1 mph13.0 kmh 30.26 in1024.7 mb - 0.00 in0.0 mm 0.00 in0.0 mm
07:20 AM 15.6°F-9.1°C 7.3°F-13.7°C 69% 6.9 mph W11.1 kmh W 9.2 mph14.8 kmh 30.27 in1025.1 mb - 0.00 in0.0 mm 0.00 in0.0 mm
07:25 AM 15.8°F-9.0°C 7.4°F-13.7°C 69% 6.9 mph WSW11.1 kmh WSW 6.9 mph11.1 kmh 30.27 in1025.1 mb - 0.00 in0.0 mm 0.00 in0.0 mm
07:30 AM 15.8°F-9.0°C 7.4°F-13.7°C 69% 6.9 mph SW11.1 kmh SW 11.5 mph18.5 kmh 30.26 in1024.7 mb - 0.00 in0.0 mm 0.00 in0.0 mm
07:35 AM 15.8°F-9.0°C 7.1°F-13.8°C 68% 5.8 mph W9.3 kmh W 4.6 mph7.4 kmh 30.25 in1024.4 mb - 0.00 in0.0 mm 0.00 in0.0 mm
07:40 AM 16.0°F-8.9°C 7.6°F-13.6°C 69% 4.6 mph W7.4 kmh W 4.6 mph7.4 kmh 30.26 in1024.7 mb - 0.00 in0.0 mm 0.00 in0.0 mm
07:45 AM 16.2°F-8.8°C 7.4°F-13.7°C 68% 8.1 mph SW13.0 kmh SW 11.5 mph18.5 kmh 30.27 in1025.1 mb - 0.00 in0.0 mm 0.00 in0.0 mm
07:50 AM 16.0°F-8.9°C 7.3°F-13.7°C 68% 6.9 mph SW11.1 kmh SW 11.5 mph18.5 kmh 30.27 in1025.1 mb - 0.00 in0.0 mm 0.00 in0.0 mm
07:55 AM 16.0°F-8.9°C 6.6°F-14.1°C 66% 8.1 mph WSW13.0 kmh WSW 6.9 mph11.1 kmh 30.27 in1025.1 mb - 0.00 in0.0 mm 0.00 in0.0 mm
08:00 AM 16.0°F-8.9°C 7.3°F-13.7°C 68% 5.8 mph WSW9.3 kmh WSW 11.5 mph18.5 kmh 30.27 in1025.1 mb - 0.00 in0.0 mm 0.00 in0.0 mm
08:10 AM 16.3°F-8.7°C 7.6°F-13.6°C 68% 6.9 mph WNW11.1 kmh WNW 6.9 mph11.1 kmh 30.27 in1025.1 mb - 0.00 in0.0 mm 0.00 in0.0 mm
08:15 AM 16.8°F-8.4°C 7.4°F-13.7°C 66% 6.9 mph WSW11.1 kmh WSW 12.7 mph20.4 kmh 30.27 in1025.1 mb - 0.00 in0.0 mm 0.00 in0.0 mm
08:20 AM 16.7°F-8.5°C 7.3°F-13.7°C 66% 8.1 mph W13.0 kmh W 9.2 mph14.8 kmh 30.27 in1025.1 mb - 0.00 in0.0 mm 0.00 in0.0 mm
08:25 AM 17.2°F-8.2°C 7.7°F-13.5°C 66% 5.8 mph W9.3 kmh W 6.9 mph11.1 kmh 30.27 in1025.1 mb - 0.00 in0.0 mm 0.00 in0.0 mm
08:30 AM 17.1°F-8.3°C 7.7°F-13.5°C 66% 6.9 mph W11.1 kmh W 5.8 mph9.3 kmh 30.27 in1025.1 mb - 0.00 in0.0 mm 0.00 in0.0 mm
08:35 AM 17.3°F-8.2°C 7.9°F-13.4°C 66% 6.9 mph W11.1 kmh W 8.1 mph13.0 kmh 30.27 in1025.1 mb - 0.00 in0.0 mm 0.00 in0.0 mm
08:40 AM 17.2°F-8.2°C 7.5°F-13.6°C 65% 6.9 mph W11.1 kmh W 5.8 mph9.3 kmh 30.27 in1025.1 mb - 0.00 in0.0 mm 0.00 in0.0 mm
08:45 AM 17.8°F-7.9°C 8.4°F-13.1°C 66% 4.6 mph NW7.4 kmh NW 8.1 mph13.0 kmh 30.27 in1025.1 mb - 0.00 in0.0 mm 0.00 in0.0 mm
08:50 AM 17.4°F-8.1°C 7.7°F-13.5°C 65% 8.1 mph W13.0 kmh W 11.5 mph18.5 kmh 30.27 in1025.1 mb - 0.00 in0.0 mm 0.00 in0.0 mm
08:55 AM 17.8°F-7.9°C 8.0°F-13.3°C 65% 5.8 mph WSW9.3 kmh WSW 5.8 mph9.3 kmh 30.27 in1025.1 mb - 0.00 in0.0 mm 0.00 in0.0 mm
09:00 AM 18.1°F-7.7°C 8.3°F-13.2°C 65% 4.6 mph SW7.4 kmh SW 8.1 mph13.0 kmh 30.27 in1025.1 mb - 0.00 in0.0 mm 0.00 in0.0 mm
09:10 AM 18.1°F-7.7°C 8.3°F-13.2°C 65% 5.8 mph WSW9.3 kmh WSW 10.4 mph16.7 kmh 30.27 in1025.1 mb - 0.00 in0.0 mm 0.00 in0.0 mm
09:15 AM 19.0°F-7.2°C 9.5°F-12.5°C 66% 4.6 mph W7.4 kmh W 4.6 mph7.4 kmh 30.27 in1025.1 mb - 0.00 in0.0 mm 0.00 in0.0 mm
09:20 AM 19.0°F-7.2°C 9.2°F-12.7°C 65% 4.6 mph SSW7.4 kmh SSW 5.8 mph9.3 kmh 30.27 in1025.1 mb - 0.00 in0.0 mm 0.00 in0.0 mm
09:25 AM 19.5°F-6.9°C 9.7°F-12.4°C 65% 5.8 mph W9.3 kmh W 6.9 mph11.1 kmh 30.27 in1025.1 mb - 0.00 in0.0 mm 0.00 in0.0 mm
09:30 AM 19.2°F-7.1°C 9.4°F-12.6°C 65% 5.8 mph WSW9.3 kmh WSW 6.9 mph11.1 kmh 30.27 in1025.1 mb - 0.00 in0.0 mm 0.00 in0.0 mm
09:35 AM 19.2°F-7.1°C 9.4°F-12.6°C 65% 5.8 mph WSW9.3 kmh WSW 6.9 mph11.1 kmh 30.27 in1025.1 mb - 0.00 in0.0 mm 0.00 in0.0 mm
09:40 AM 19.6°F-6.9°C 9.7°F-12.4°C 65% 5.8 mph W9.3 kmh W 9.2 mph14.8 kmh 30.27 in1025.1 mb - 0.00 in0.0 mm 0.00 in0.0 mm
09:45 AM 19.8°F-6.8°C 9.9°F-12.3°C 65% 6.9 mph NW11.1 kmh NW 8.1 mph13.0 kmh 30.27 in1025.1 mb - 0.00 in0.0 mm 0.00 in0.0 mm
09:50 AM 20.1°F-6.6°C 10.2°F-12.1°C 65% 6.9 mph W11.1 kmh W 6.9 mph11.1 kmh 30.27 in1025.1 mb - 0.00 in0.0 mm 0.00 in0.0 mm
09:55 AM 20.0°F-6.7°C 9.4°F-12.6°C 63% 8.1 mph WSW13.0 kmh WSW 9.2 mph14.8 kmh 30.27 in1025.1 mb - 0.00 in0.0 mm 0.00 in0.0 mm
10:00 AM 20.3°F-6.5°C 10.4°F-12.0°C 65% 5.8 mph W9.3 kmh W 6.9 mph11.1 kmh 30.27 in1025.1 mb - 0.00 in0.0 mm 0.00 in0.0 mm
10:10 AM 20.8°F-6.2°C 10.2°F-12.1°C 63% 6.9 mph SW11.1 kmh SW 10.4 mph16.7 kmh 30.27 in1025.1 mb - 0.00 in0.0 mm 0.00 in0.0 mm
10:15 AM 20.7°F-6.3°C 10.0°F-12.2°C 63% 8.1 mph W13.0 kmh W 9.2 mph14.8 kmh 30.27 in1025.1 mb - 0.00 in0.0 mm 0.00 in0.0 mm
10:20 AM 21.3°F-5.9°C 10.6°F-11.9°C 63% 6.9 mph WSW11.1 kmh WSW 6.9 mph11.1 kmh 30.28 in1025.4 mb - 0.00 in0.0 mm 0.00 in0.0 mm
10:25 AM 20.8°F-6.2°C 10.2°F-12.1°C 63% 6.9 mph WSW11.1 kmh WSW 8.1 mph13.0 kmh 30.28 in1025.4 mb - 0.00 in0.0 mm 0.00 in0.0 mm
10:30 AM 21.4°F-5.9°C 10.4°F-12.0°C 62% 6.9 mph SW11.1 kmh SW 8.1 mph13.0 kmh 30.28 in1025.4 mb - 0.00 in0.0 mm 0.00 in0.0 mm
10:35 AM 22.0°F-5.6°C 10.6°F-11.9°C 61% 6.9 mph W11.1 kmh W 6.9 mph11.1 kmh 30.28 in1025.4 mb - 0.00 in0.0 mm 0.00 in0.0 mm
10:40 AM 22.1°F-5.5°C 10.7°F-11.8°C 61% 5.8 mph SSE9.3 kmh SSE 9.2 mph14.8 kmh 30.28 in1025.4 mb - 0.00 in0.0 mm 0.00 in0.0 mm
10:45 AM 22.3°F-5.4°C 10.9°F-11.7°C 61% 9.2 mph W14.8 kmh W 11.5 mph18.5 kmh 30.28 in1025.4 mb - 0.00 in0.0 mm 0.00 in0.0 mm
10:50 AM 22.5°F-5.3°C 11.0°F-11.7°C 61% 8.1 mph WSW13.0 kmh WSW 6.9 mph11.1 kmh 30.28 in1025.4 mb - 0.00 in0.0 mm 0.00 in0.0 mm
10:55 AM 22.9°F-5.1°C 12.2°F-11.0°C 63% 6.9 mph W11.1 kmh W 9.2 mph14.8 kmh 30.27 in1025.1 mb - 0.00 in0.0 mm 0.00 in0.0 mm
11:00 AM 23.3°F-4.8°C 11.8°F-11.2°C 61% 5.8 mph WSW9.3 kmh WSW 10.4 mph16.7 kmh 30.27 in1025.1 mb - 0.00 in0.0 mm 0.00 in0.0 mm
11:10 AM 24.4°F-4.2°C 12.9°F-10.6°C 61% 5.8 mph WNW9.3 kmh WNW 9.2 mph14.8 kmh 30.27 in1025.1 mb - 0.00 in0.0 mm 0.00 in0.0 mm
11:15 AM 23.7°F-4.6°C 11.5°F-11.4°C 59% 9.2 mph WNW14.8 kmh WNW 11.5 mph18.5 kmh 30.27 in1025.1 mb - 0.00 in0.0 mm 0.00 in0.0 mm
11:20 AM 24.3°F-4.3°C 12.4°F-10.9°C 60% 9.2 mph WNW14.8 kmh WNW 6.9 mph11.1 kmh 30.26 in1024.7 mb - 0.00 in0.0 mm 0.00 in0.0 mm
11:25 AM 24.3°F-4.3°C 12.4°F-10.9°C 60% 9.2 mph WNW14.8 kmh WNW 6.9 mph11.1 kmh 30.27 in1025.1 mb - 0.00 in0.0 mm 0.00 in0.0 mm
11:30 AM 24.6°F-4.1°C 12.7°F-10.7°C 60% 5.8 mph SSW9.3 kmh SSW 8.1 mph13.0 kmh 30.27 in1025.1 mb - 0.00 in0.0 mm 0.00 in0.0 mm
11:35 AM 25.3°F-3.7°C 13.8°F-10.1°C 61% 5.8 mph WSW9.3 kmh WSW 5.8 mph9.3 kmh 30.26 in1024.7 mb - 0.00 in0.0 mm 0.00 in0.0 mm
11:40 AM 25.0°F-3.9°C 12.3°F-10.9°C 58% 5.8 mph W9.3 kmh W 5.8 mph9.3 kmh 30.27 in1025.1 mb - 0.00 in0.0 mm 0.00 in0.0 mm
11:45 AM 24.9°F-3.9°C 11.4°F-11.4°C 56% 8.1 mph SW13.0 kmh SW 6.9 mph11.1 kmh 30.27 in1025.1 mb - 0.00 in0.0 mm 0.00 in0.0 mm
11:50 AM 25.2°F-3.8°C 13.2°F-10.4°C 60% 6.9 mph W11.1 kmh W 5.8 mph9.3 kmh 30.26 in1024.7 mb - 0.00 in0.0 mm 0.00 in0.0 mm
11:55 AM 25.2°F-3.8°C 12.9°F-10.6°C 59% 5.8 mph WSW9.3 kmh WSW 6.9 mph11.1 kmh 30.26 in1024.7 mb - 0.00 in0.0 mm 0.00 in0.0 mm
12:00 PM 25.2°F-3.8°C 12.8°F-10.7°C 59% 5.8 mph SW9.3 kmh SW 6.9 mph11.1 kmh 30.26 in1024.7 mb - 0.00 in0.0 mm 0.00 in0.0 mm
12:10 PM 26.0°F-3.3°C 12.8°F-10.7°C 57% 5.8 mph WNW9.3 kmh WNW 8.1 mph13.0 kmh 30.26 in1024.7 mb - 0.00 in0.0 mm 0.00 in0.0 mm
12:15 PM 26.1°F-3.3°C 12.1°F-11.1°C 55% 8.1 mph WSW13.0 kmh WSW 6.9 mph11.1 kmh 30.26 in1024.7 mb - 0.00 in0.0 mm 0.00 in0.0 mm
12:20 PM 26.2°F-3.2°C 12.7°F-10.7°C 56% 6.9 mph SW11.1 kmh SW 5.8 mph9.3 kmh 30.25 in1024.4 mb - 0.00 in0.0 mm 0.00 in0.0 mm
12:25 PM 26.8°F-2.9°C 12.8°F-10.7°C 55% 8.1 mph SW13.0 kmh SW 11.5 mph18.5 kmh 30.25 in1024.4 mb - 0.00 in0.0 mm 0.00 in0.0 mm
12:30 PM 26.5°F-3.1°C 12.9°F-10.6°C 56% 6.9 mph WSW11.1 kmh WSW 11.5 mph18.5 kmh 30.25 in1024.4 mb - 0.00 in0.0 mm 0.00 in0.0 mm
12:35 PM 26.1°F-3.3°C 13.0°F-10.6°C 57% 6.9 mph S11.1 kmh S 10.4 mph16.7 kmh 30.26 in1024.7 mb - 0.00 in0.0 mm 0.00 in0.0 mm
12:40 PM 26.8°F-2.9°C 13.2°F-10.4°C 56% 8.1 mph WSW13.0 kmh WSW 11.5 mph18.5 kmh 30.26 in1024.7 mb - 0.00 in0.0 mm 0.00 in0.0 mm
12:45 PM 27.0°F-2.8°C 12.9°F-10.6°C 55% 9.2 mph W14.8 kmh W 11.5 mph18.5 kmh 30.26 in1024.7 mb - 0.00 in0.0 mm 0.00 in0.0 mm
12:50 PM 27.0°F-2.8°C 12.9°F-10.6°C 55% 8.1 mph WNW13.0 kmh WNW 6.9 mph11.1 kmh 30.25 in1024.4 mb - 0.00 in0.0 mm 0.00 in0.0 mm
12:55 PM 27.5°F-2.5°C 13.8°F-10.1°C 56% 8.1 mph WSW13.0 kmh WSW 9.2 mph14.8 kmh 30.25 in1024.4 mb - 0.00 in0.0 mm 0.00 in0.0 mm
01:00 PM 27.5°F-2.5°C 13.4°F-10.3°C 55% 5.8 mph WSW9.3 kmh WSW 12.7 mph20.4 kmh 30.24 in1024.0 mb - 0.00 in0.0 mm 0.00 in0.0 mm
01:10 PM 27.8°F-2.3°C 13.7°F-10.2°C 55% 9.2 mph WSW14.8 kmh WSW 8.1 mph13.0 kmh 30.24 in1024.0 mb - 0.00 in0.0 mm 0.00 in0.0 mm
01:15 PM 28.2°F-2.1°C 14.1°F-9.9°C 55% 6.9 mph W11.1 kmh W 9.2 mph14.8 kmh 30.24 in1024.0 mb - 0.00 in0.0 mm 0.00 in0.0 mm
01:20 PM 28.2°F-2.1°C 14.1°F-9.9°C 55% 6.9 mph WNW11.1 kmh WNW 5.8 mph9.3 kmh 30.23 in1023.7 mb - 0.00 in0.0 mm 0.00 in0.0 mm
01:25 PM 28.8°F-1.8°C 14.6°F-9.7°C 55% 3.5 mph SW5.6 kmh SW 4.6 mph7.4 kmh 30.24 in1024.0 mb - 0.00 in0.0 mm 0.00 in0.0 mm
01:30 PM 28.6°F-1.9°C 14.4°F-9.8°C 55% 8.1 mph SW13.0 kmh SW 8.1 mph13.0 kmh 30.23 in1023.7 mb - 0.00 in0.0 mm 0.00 in0.0 mm
01:35 PM 29.1°F-1.6°C 14.5°F-9.7°C 54% 6.9 mph SW11.1 kmh SW 8.1 mph13.0 kmh 30.23 in1023.7 mb - 0.00 in0.0 mm 0.00 in0.0 mm
01:40 PM 28.7°F-1.8°C 14.5°F-9.7°C 55% 6.9 mph W11.1 kmh W 6.9 mph11.1 kmh 30.22 in1023.4 mb - 0.00 in0.0 mm 0.00 in0.0 mm
01:45 PM 29.1°F-1.6°C 14.9°F-9.5°C 55% 8.1 mph W13.0 kmh W 13.8 mph22.2 kmh 30.22 in1023.4 mb - 0.00 in0.0 mm 0.00 in0.0 mm
01:50 PM 28.7°F-1.8°C 14.5°F-9.7°C 55% 6.9 mph WSW11.1 kmh WSW 10.4 mph16.7 kmh 30.22 in1023.4 mb - 0.00 in0.0 mm 0.00 in0.0 mm
01:55 PM 28.8°F-1.8°C 14.2°F-9.9°C 54% 8.1 mph WSW13.0 kmh WSW 9.2 mph14.8 kmh 30.22 in1023.4 mb - 0.00 in0.0 mm 0.00 in0.0 mm
02:00 PM 29.1°F-1.6°C 14.9°F-9.5°C 55% 10.4 mph W16.7 kmh W 10.4 mph16.7 kmh 30.21 in1023.0 mb - 0.00 in0.0 mm 0.00 in0.0 mm
02:10 PM 28.8°F-1.8°C 14.2°F-9.9°C 54% 6.9 mph WSW11.1 kmh WSW 6.9 mph11.1 kmh 30.21 in1023.0 mb - 0.00 in0.0 mm 0.00 in0.0 mm
02:15 PM 29.1°F-1.6°C 15.0°F-9.4°C 55% 4.6 mph WSW7.4 kmh WSW 8.1 mph13.0 kmh 30.21 in1023.0 mb - 0.00 in0.0 mm 0.00 in0.0 mm
02:20 PM 30.0°F-1.1°C 14.9°F-9.5°C 53% 8.1 mph WSW13.0 kmh WSW 8.1 mph13.0 kmh 30.21 in1023.0 mb - 0.00 in0.0 mm 0.00 in0.0 mm
02:25 PM 29.6°F-1.3°C 14.5°F-9.7°C 53% 8.1 mph W13.0 kmh W 9.2 mph14.8 kmh 30.21 in1023.0 mb - 0.00 in0.0 mm 0.00 in0.0 mm
02:30 PM 30.3°F-0.9°C 14.3°F-9.8°C 51% 6.9 mph W11.1 kmh W 8.1 mph13.0 kmh 30.20 in1022.7 mb - 0.00 in0.0 mm 0.00 in0.0 mm
02:35 PM 30.7°F-0.7°C 15.6°F-9.1°C 53% 6.9 mph SW11.1 kmh SW 10.4 mph16.7 kmh 30.20 in1022.7 mb - 0.00 in0.0 mm 0.00 in0.0 mm
02:40 PM 30.5°F-0.8°C 15.8°F-9.0°C 54% 8.1 mph WSW13.0 kmh WSW 8.1 mph13.0 kmh 30.20 in1022.7 mb - 0.00 in0.0 mm 0.00 in0.0 mm
02:45 PM 30.7°F-0.7°C 15.6°F-9.1°C 53% 8.1 mph WSW13.0 kmh WSW 12.7 mph20.4 kmh 30.21 in1023.0 mb - 0.00 in0.0 mm 0.00 in0.0 mm
02:50 PM 30.7°F-0.7°C 16.5°F-8.6°C 55% 6.9 mph SW11.1 kmh SW 9.2 mph14.8 kmh 30.20 in1022.7 mb - 0.00 in0.0 mm 0.00 in0.0 mm
02:55 PM 30.7°F-0.7°C 15.6°F-9.1°C 53% 8.1 mph WSW13.0 kmh WSW 11.5 mph18.5 kmh 30.20 in1022.7 mb - 0.00 in0.0 mm 0.00 in0.0 mm
03:00 PM 31.1°F-0.5°C 14.6°F-9.7°C 50% 8.1 mph SSW13.0 kmh SSW 10.4 mph16.7 kmh 30.20 in1022.7 mb - 0.00 in0.0 mm 0.00 in0.0 mm
03:10 PM 30.9°F-0.6°C 14.4°F-9.8°C 50% 10.4 mph WSW16.7 kmh WSW 9.2 mph14.8 kmh 30.20 in1022.7 mb - 0.00 in0.0 mm 0.00 in0.0 mm
03:15 PM 30.7°F-0.7°C 14.3°F-9.8°C 50% 9.2 mph WSW14.8 kmh WSW 9.2 mph14.8 kmh 30.19 in1022.4 mb - 0.00 in0.0 mm 0.00 in0.0 mm
03:20 PM 31.3°F-0.4°C 15.2°F-9.3°C 51% 8.1 mph W13.0 kmh W 8.1 mph13.0 kmh 30.19 in1022.4 mb - 0.00 in0.0 mm 0.00 in0.0 mm
03:25 PM 31.1°F-0.5°C 14.6°F-9.7°C 50% 9.2 mph SSE14.8 kmh SSE 9.2 mph14.8 kmh 30.19 in1022.4 mb - 0.00 in0.0 mm 0.00 in0.0 mm
03:30 PM 31.5°F-0.3°C 14.9°F-9.5°C 50% 9.2 mph WSW14.8 kmh WSW 10.4 mph16.7 kmh 30.19 in1022.4 mb - 0.00 in0.0 mm 0.00 in0.0 mm
03:35 PM 31.5°F-0.3°C 14.9°F-9.5°C 50% 6.9 mph W11.1 kmh W 8.1 mph13.0 kmh 30.19 in1022.4 mb - 0.00 in0.0 mm 0.00 in0.0 mm
03:40 PM 31.6°F-0.2°C 15.1°F-9.4°C 50% 9.2 mph SW14.8 kmh SW 12.7 mph20.4 kmh 30.18 in1022.0 mb - 0.00 in0.0 mm 0.00 in0.0 mm
03:45 PM 31.2°F-0.4°C 15.2°F-9.3°C 51% 9.2 mph SSW14.8 kmh SSW 9.2 mph14.8 kmh 30.19 in1022.4 mb - 0.00 in0.0 mm 0.00 in0.0 mm
03:50 PM 31.3°F-0.4°C 15.2°F-9.3°C 51% 5.8 mph SW9.3 kmh SW 6.9 mph11.1 kmh 30.18 in1022.0 mb - 0.00 in0.0 mm 0.00 in0.0 mm
03:55 PM 31.8°F-0.1°C 14.7°F-9.6°C 49% 6.9 mph SW11.1 kmh SW 5.8 mph9.3 kmh 30.18 in1022.0 mb - 0.00 in0.0 mm 0.00 in0.0 mm
04:00 PM 31.7°F-0.2°C 14.7°F-9.6°C 49% 8.1 mph WSW13.0 kmh WSW 11.5 mph18.5 kmh 30.17 in1021.7 mb - 0.00 in0.0 mm 0.00 in0.0 mm
04:10 PM 31.8°F-0.1°C 14.8°F-9.6°C 49% 6.9 mph SW11.1 kmh SW 9.2 mph14.8 kmh 30.17 in1021.7 mb - 0.00 in0.0 mm 0.00 in0.0 mm
04:15 PM 32.2°F0.1°C 15.2°F-9.3°C 49% 6.9 mph W11.1 kmh W 6.9 mph11.1 kmh 30.17 in1021.7 mb - 0.00 in0.0 mm 0.00 in0.0 mm
04:20 PM 32.5°F0.3°C 15.5°F-9.2°C 49% 5.8 mph ESE9.3 kmh ESE 4.6 mph7.4 kmh 30.17 in1021.7 mb - 0.00 in0.0 mm 0.00 in0.0 mm
04:25 PM 32.4°F0.2°C 15.8°F-9.0°C 50% 6.9 mph W11.1 kmh W 8.1 mph13.0 kmh 30.16 in1021.3 mb - 0.00 in0.0 mm 0.00 in0.0 mm
04:30 PM 32.4°F0.2°C 15.8°F-9.0°C 50% 8.1 mph W13.0 kmh W 11.5 mph18.5 kmh 30.16 in1021.3 mb - 0.00 in0.0 mm 0.00 in0.0 mm
04:35 PM 32.9°F0.5°C 16.3°F-8.7°C 50% 6.9 mph WSW11.1 kmh WSW 8.1 mph13.0 kmh 30.16 in1021.3 mb - 0.00 in0.0 mm 0.00 in0.0 mm
04:40 PM 32.5°F0.3°C 15.9°F-8.9°C 50% 6.9 mph W11.1 kmh W 5.8 mph9.3 kmh 30.16 in1021.3 mb - 0.00 in0.0 mm 0.00 in0.0 mm
04:45 PM 32.5°F0.3°C 15.5°F-9.2°C 49% 8.1 mph W13.0 kmh W 9.2 mph14.8 kmh 30.16 in1021.3 mb - 0.00 in0.0 mm 0.00 in0.0 mm
04:50 PM 32.5°F0.3°C 15.9°F-8.9°C 50% 6.9 mph WSW11.1 kmh WSW 9.2 mph14.8 kmh 30.16 in1021.3 mb - 0.00 in0.0 mm 0.00 in0.0 mm
04:55 PM 32.2°F0.1°C 15.6°F-9.1°C 50% 8.1 mph WSW13.0 kmh WSW 9.2 mph14.8 kmh 30.16 in1021.3 mb - 0.00 in0.0 mm 0.00 in0.0 mm
05:00 PM 32.4°F0.2°C 15.8°F-9.0°C 50% 6.9 mph W11.1 kmh W 9.2 mph14.8 kmh 30.15 in1021.0 mb - 0.00 in0.0 mm 0.00 in0.0 mm
05:10 PM 32.2°F0.1°C 15.6°F-9.1°C 50% 6.9 mph SW11.1 kmh SW 11.5 mph18.5 kmh 30.15 in1021.0 mb - 0.00 in0.0 mm 0.00 in0.0 mm
05:15 PM 32.2°F0.1°C 15.6°F-9.1°C 50% 6.9 mph WSW11.1 kmh WSW 4.6 mph7.4 kmh 30.14 in1020.7 mb - 0.00 in0.0 mm 0.00 in0.0 mm
05:20 PM 32.4°F0.2°C 15.8°F-9.0°C 50% 5.8 mph SW9.3 kmh SW 4.6 mph7.4 kmh 30.14 in1020.7 mb - 0.00 in0.0 mm 0.00 in0.0 mm
05:25 PM 31.7°F-0.2°C 14.7°F-9.6°C 49% 9.2 mph W14.8 kmh W 10.4 mph16.7 kmh 30.14 in1020.7 mb - 0.00 in0.0 mm 0.00 in0.0 mm
05:30 PM 31.6°F-0.2°C 15.1°F-9.4°C 50% 6.9 mph WNW11.1 kmh WNW 3.5 mph5.6 kmh 30.14 in1020.7 mb - 0.00 in0.0 mm 0.00 in0.0 mm
05:35 PM 31.6°F-0.2°C 14.6°F-9.7°C 49% 8.1 mph W13.0 kmh W 11.5 mph18.5 kmh 30.14 in1020.7 mb - 0.00 in0.0 mm 0.00 in0.0 mm
05:40 PM 31.6°F-0.2°C 14.2°F-9.9°C 48% 8.1 mph W13.0 kmh W 10.4 mph16.7 kmh 30.14 in1020.7 mb - 0.00 in0.0 mm 0.00 in0.0 mm
05:45 PM 31.6°F-0.2°C 14.1°F-9.9°C 48% 9.2 mph WSW14.8 kmh WSW 9.2 mph14.8 kmh 30.14 in1020.7 mb - 0.00 in0.0 mm 0.00 in0.0 mm
05:50 PM 31.6°F-0.2°C 14.6°F-9.7°C 49% 6.9 mph W11.1 kmh W 8.1 mph13.0 kmh 30.14 in1020.7 mb - 0.00 in0.0 mm 0.00 in0.0 mm
05:55 PM 31.6°F-0.2°C 15.1°F-9.4°C 50% 5.8 mph W9.3 kmh W 5.8 mph9.3 kmh 30.13 in1020.3 mb - 0.00 in0.0 mm 0.00 in0.0 mm
06:00 PM 31.5°F-0.3°C 15.0°F-9.4°C 50% 8.1 mph W13.0 kmh W 11.5 mph18.5 kmh 30.14 in1020.7 mb - 0.00 in0.0 mm 0.00 in0.0 mm
06:10 PM 30.7°F-0.7°C 14.3°F-9.8°C 50% 8.1 mph SW13.0 kmh SW 10.4 mph16.7 kmh 30.13 in1020.3 mb - 0.00 in0.0 mm 0.00 in0.0 mm
06:15 PM 30.7°F-0.7°C 14.3°F-9.8°C 50% 8.1 mph W13.0 kmh W 11.5 mph18.5 kmh 30.13 in1020.3 mb - 0.00 in0.0 mm 0.00 in0.0 mm
06:20 PM 30.7°F-0.7°C 14.3°F-9.8°C 50% 8.1 mph W13.0 kmh W 8.1 mph13.0 kmh 30.13 in1020.3 mb - 0.00 in0.0 mm 0.00 in0.0 mm
06:25 PM 30.7°F-0.7°C 14.3°F-9.8°C 50% 6.9 mph W11.1 kmh W 5.8 mph9.3 kmh 30.13 in1020.3 mb - 0.00 in0.0 mm 0.00 in0.0 mm
06:30 PM 30.7°F-0.7°C 14.3°F-9.8°C 50% 6.9 mph W11.1 kmh W 9.2 mph14.8 kmh 30.13 in1020.3 mb - 0.00 in0.0 mm 0.00 in0.0 mm
06:35 PM 30.4°F-0.9°C 13.9°F-10.1°C 50% 5.8 mph W9.3 kmh W 4.6 mph7.4 kmh 30.13 in1020.3 mb - 0.00 in0.0 mm 0.00 in0.0 mm
06:40 PM 30.0°F-1.1°C 13.6°F-10.2°C 50% 5.8 mph WSW9.3 kmh WSW 11.5 mph18.5 kmh 30.12 in1020.0 mb - 0.00 in0.0 mm 0.00 in0.0 mm
06:45 PM 30.0°F-1.1°C 13.6°F-10.2°C 50% 6.9 mph W11.1 kmh W 6.9 mph11.1 kmh 30.12 in1020.0 mb - 0.00 in0.0 mm 0.00 in0.0 mm
06:50 PM 30.0°F-1.1°C 14.1°F-9.9°C 51% 5.8 mph W9.3 kmh W 8.1 mph13.0 kmh 30.12 in1020.0 mb - 0.00 in0.0 mm 0.00 in0.0 mm
06:55 PM 29.9°F-1.2°C 14.8°F-9.6°C 53% 4.6 mph W7.4 kmh W 5.8 mph9.3 kmh 30.12 in1020.0 mb - 0.00 in0.0 mm 0.00 in0.0 mm
07:00 PM 29.6°F-1.3°C 14.5°F-9.7°C 53% 5.8 mph SW9.3 kmh SW 6.9 mph11.1 kmh 30.12 in1020.0 mb - 0.00 in0.0 mm 0.00 in0.0 mm
07:10 PM 29.1°F-1.6°C 14.1°F-9.9°C 53% 4.6 mph WNW7.4 kmh WNW 8.1 mph13.0 kmh 30.12 in1020.0 mb - 0.00 in0.0 mm 0.00 in0.0 mm
07:15 PM 29.1°F-1.6°C 14.1°F-9.9°C 53% 4.6 mph WNW7.4 kmh WNW 8.1 mph13.0 kmh 30.12 in1020.0 mb - 0.00 in0.0 mm 0.00 in0.0 mm
07:20 PM 28.2°F-2.1°C 14.1°F-9.9°C 55% 3.5 mph WSW5.6 kmh WSW 3.5 mph5.6 kmh 30.12 in1020.0 mb - 0.00 in0.0 mm 0.00 in0.0 mm
07:25 PM 27.9°F-2.3°C 13.8°F-10.1°C 55% 3.5 mph WSW5.6 kmh WSW 6.9 mph11.1 kmh 30.12 in1020.0 mb - 0.00 in0.0 mm 0.00 in0.0 mm
07:30 PM 27.7°F-2.4°C 14.0°F-10.0°C 56% 4.6 mph WSW7.4 kmh WSW 9.2 mph14.8 kmh 30.12 in1020.0 mb - 0.00 in0.0 mm 0.00 in0.0 mm
07:35 PM 27.7°F-2.4°C 14.0°F-10.0°C 56% 4.6 mph W7.4 kmh W 8.1 mph13.0 kmh 30.12 in1020.0 mb - 0.00 in0.0 mm 0.00 in0.0 mm
07:40 PM 27.7°F-2.4°C 14.0°F-10.0°C 56% 3.5 mph WSW5.6 kmh WSW 4.6 mph7.4 kmh 30.12 in1020.0 mb - 0.00 in0.0 mm 0.00 in0.0 mm
07:45 PM 27.7°F-2.4°C 14.0°F-10.0°C 56% 3.5 mph W5.6 kmh W 4.6 mph7.4 kmh 30.12 in1020.0 mb - 0.00 in0.0 mm 0.00 in0.0 mm
07:50 PM 27.5°F-2.5°C 14.6°F-9.7°C 58% 3.5 mph W5.6 kmh W 3.5 mph5.6 kmh 30.12 in1020.0 mb - 0.00 in0.0 mm 0.00 in0.0 mm
07:55 PM 27.3°F-2.6°C 14.9°F-9.5°C 59% 2.3 mph W3.7 kmh W 3.5 mph5.6 kmh 30.12 in1020.0 mb - 0.00 in0.0 mm 0.00 in0.0 mm
08:00 PM 27.1°F-2.7°C 14.7°F-9.6°C 59% 2.3 mph SW3.7 kmh SW 3.5 mph5.6 kmh 30.12 in1020.0 mb - 0.00 in0.0 mm 0.00 in0.0 mm
08:10 PM 26.6°F-3.0°C 14.6°F-9.7°C 60% 2.3 mph WSW3.7 kmh WSW 2.3 mph3.7 kmh 30.13 in1020.3 mb - 0.00 in0.0 mm 0.00 in0.0 mm
08:15 PM 26.2°F-3.2°C 14.2°F-9.9°C 60% 2.3 mph SW3.7 kmh SW 2.3 mph3.7 kmh 30.13 in1020.3 mb - 0.00 in0.0 mm 0.00 in0.0 mm
08:20 PM 26.2°F-3.2°C 14.6°F-9.7°C 61% 2.3 mph WSW3.7 kmh WSW 2.3 mph3.7 kmh 30.13 in1020.3 mb - 0.00 in0.0 mm 0.00 in0.0 mm
08:25 PM 26.2°F-3.2°C 14.6°F-9.7°C 61% 2.3 mph W3.7 kmh W 3.5 mph5.6 kmh 30.13 in1020.3 mb - 0.00 in0.0 mm 0.00 in0.0 mm
08:30 PM 26.1°F-3.3°C 14.4°F-9.8°C 61% 2.3 mph SW3.7 kmh SW 3.5 mph5.6 kmh 30.13 in1020.3 mb - 0.00 in0.0 mm 0.00 in0.0 mm
08:35 PM 26.1°F-3.3°C 14.4°F-9.8°C 61% 2.3 mph W3.7 kmh W 3.5 mph5.6 kmh 30.12 in1020.0 mb - 0.00 in0.0 mm 0.00 in0.0 mm
08:40 PM 25.9°F-3.4°C 15.0°F-9.4°C 63% 1.2 mph W1.9 kmh W 3.5 mph5.6 kmh 30.13 in1020.3 mb - 0.00 in0.0 mm 0.00 in0.0 mm
08:45 PM 25.9°F-3.4°C 15.0°F-9.4°C 63% 2.3 mph WSW3.7 kmh WSW 2.3 mph3.7 kmh 30.13 in1020.3 mb - 0.00 in0.0 mm 0.00 in0.0 mm
08:50 PM 25.9°F-3.4°C 15.0°F-9.4°C 63% 2.3 mph WSW3.7 kmh WSW 2.3 mph3.7 kmh 30.13 in1020.3 mb - 0.00 in0.0 mm 0.00 in0.0 mm
08:55 PM 25.9°F-3.4°C 15.0°F-9.4°C 63% 2.3 mph WSW3.7 kmh WSW 2.3 mph3.7 kmh 30.13 in1020.3 mb - 0.00 in0.0 mm 0.00 in0.0 mm
09:00 PM 25.9°F-3.4°C 15.0°F-9.4°C 63% 1.2 mph WSW1.9 kmh WSW 2.3 mph3.7 kmh 30.13 in1020.3 mb - 0.00 in0.0 mm 0.00 in0.0 mm
09:10 PM 25.9°F-3.4°C 15.0°F-9.4°C 63% 1.2 mph SW1.9 kmh SW 2.3 mph3.7 kmh 30.13 in1020.3 mb - 0.00 in0.0 mm 0.00 in0.0 mm
09:15 PM 24.6°F-4.1°C 14.5°F-9.7°C 65% Calm Calm -- 30.13 in1020.3 mb - 0.00 in0.0 mm 0.00 in0.0 mm
09:20 PM 24.2°F-4.3°C 14.4°F-9.8°C 66% 1.2 mph WSW1.9 kmh WSW 1.2 mph1.9 kmh 30.13 in1020.3 mb - 0.00 in0.0 mm 0.00 in0.0 mm
09:25 PM 23.7°F-4.6°C 14.0°F-10.0°C 66% Calm Calm 2.3 mph3.7 kmh 30.14 in1020.7 mb - 0.00 in0.0 mm 0.00 in0.0 mm
09:30 PM 23.7°F-4.6°C 14.0°F-10.0°C 66% Calm Calm -- 30.13 in1020.3 mb - 0.00 in0.0 mm 0.00 in0.0 mm
09:35 PM 23.4°F-4.8°C 14.4°F-9.8°C 68% Calm Calm -- 30.13 in1020.3 mb - 0.00 in0.0 mm 0.00 in0.0 mm
09:40 PM 23.2°F-4.9°C 14.5°F-9.7°C 69% Calm Calm -- 30.13 in1020.3 mb - 0.00 in0.0 mm 0.00 in0.0 mm
09:45 PM 22.6°F-5.2°C 14.3°F-9.8°C 70% Calm Calm -- 30.13 in1020.3 mb - 0.00 in0.0 mm 0.00 in0.0 mm
09:50 PM 22.4°F-5.3°C 13.8°F-10.1°C 69% Calm Calm -- 30.13 in1020.3 mb - 0.00 in0.0 mm 0.00 in0.0 mm
09:55 PM 21.9°F-5.6°C 13.3°F-10.4°C 69% Calm Calm -- 30.13 in1020.3 mb - 0.00 in0.0 mm 0.00 in0.0 mm
10:00 PM 21.7°F-5.7°C 13.5°F-10.3°C 70% Calm Calm -- 30.13 in1020.3 mb - 0.00 in0.0 mm 0.00 in0.0 mm
10:10 PM 21.2°F-6.0°C 13.9°F-10.1°C 73% Calm Calm -- 30.12 in1020.0 mb - 0.00 in0.0 mm 0.00 in0.0 mm
10:15 PM 21.2°F-6.0°C 14.2°F-9.9°C 74% Calm Calm -- 30.13 in1020.3 mb - 0.00 in0.0 mm 0.00 in0.0 mm
10:20 PM 21.4°F-5.9°C 14.7°F-9.6°C 75% Calm Calm -- 30.12 in1020.0 mb - 0.00 in0.0 mm 0.00 in0.0 mm
10:25 PM 21.4°F-5.9°C 14.7°F-9.6°C 75% Calm Calm -- 30.12 in1020.0 mb - 0.00 in0.0 mm 0.00 in0.0 mm
10:30 PM 21.2°F-6.0°C 14.5°F-9.7°C 75% Calm Calm -- 30.12 in1020.0 mb - 0.00 in0.0 mm 0.00 in0.0 mm
10:35 PM 20.7°F-6.3°C 13.7°F-10.2°C 74% Calm Calm -- 30.12 in1020.0 mb - 0.00 in0.0 mm 0.00 in0.0 mm
10:40 PM 20.2°F-6.6°C 13.0°F-10.6°C 73% Calm Calm -- 30.12 in1020.0 mb - 0.00 in0.0 mm 0.00 in0.0 mm
10:45 PM 20.1°F-6.6°C 13.5°F-10.3°C 75% Calm Calm -- 30.11 in1019.6 mb - 0.00 in0.0 mm 0.00 in0.0 mm
10:50 PM 19.8°F-6.8°C 12.8°F-10.7°C 74% Calm Calm -- 30.11 in1019.6 mb - 0.00 in0.0 mm 0.00 in0.0 mm
10:55 PM 19.1°F-7.2°C 12.2°F-11.0°C 74% Calm Calm -- 30.12 in1020.0 mb - 0.00 in0.0 mm 0.00 in0.0 mm
11:00 PM 18.7°F-7.4°C 12.1°F-11.1°C 75% Calm Calm -- 30.12 in1020.0 mb - 0.00 in0.0 mm 0.00 in0.0 mm
11:10 PM 19.0°F-7.2°C 13.3°F-10.4°C 78% Calm Calm -- 30.11 in1019.6 mb - 0.00 in0.0 mm 0.00 in0.0 mm
11:15 PM 18.5°F-7.5°C 12.2°F-11.0°C 76% Calm Calm -- 30.11 in1019.6 mb - 0.00 in0.0 mm 0.00 in0.0 mm
11:20 PM 18.9°F-7.3°C 13.4°F-10.3°C 79% Calm Calm -- 30.11 in1019.6 mb - 0.00 in0.0 mm 0.00 in0.0 mm
11:25 PM 18.9°F-7.3°C 13.4°F-10.3°C 79% Calm Calm -- 30.11 in1019.6 mb - 0.00 in0.0 mm 0.00 in0.0 mm
11:30 PM 19.1°F-7.2°C 13.9°F-10.1°C 80% Calm Calm -- 30.11 in1019.6 mb - 0.00 in0.0 mm 0.00 in0.0 mm
11:35 PM 19.2°F-7.1°C 14.3°F-9.8°C 81% Calm Calm 1.2 mph1.9 kmh 30.11 in1019.6 mb - 0.00 in0.0 mm 0.00 in0.0 mm
11:40 PM 19.2°F-7.1°C 14.3°F-9.8°C 81% Calm Calm -- 30.11 in1019.6 mb - 0.00 in0.0 mm 0.00 in0.0 mm
11:45 PM 18.9°F-7.3°C 14.0°F-10.0°C 81% Calm Calm -- 30.10 in1019.3 mb - 0.00 in0.0 mm 0.00 in0.0 mm
11:50 PM 19.0°F-7.2°C 14.7°F-9.6°C 83% Calm Calm -- 30.11 in1019.6 mb - 0.00 in0.0 mm 0.00 in0.0 mm
11:55 PM 18.9°F-7.3°C 14.6°F-9.7°C 83% Calm Calm -- 30.10 in1019.3 mb - 0.00 in0.0 mm 0.00 in0.0 mm